createdAt,value
2022-11-28T00:01:34.977Z,10.90
2022-11-28T00:04:03.884Z,10.90
2022-11-28T00:06:33.368Z,9.50
2022-11-28T00:09:02.029Z,10.13
2022-11-28T00:11:30.220Z,9.30
2022-11-28T00:13:58.105Z,10.47
2022-11-28T00:16:26.253Z,11.43
2022-11-28T00:18:55.843Z,10.20
2022-11-28T00:21:26.116Z,10.63
2022-11-28T00:23:55.526Z,10.27
2022-11-28T00:26:25.620Z,10.07
2022-11-28T00:28:54.011Z,9.60
2022-11-28T00:31:23.986Z,9.60
2022-11-28T00:33:52.764Z,9.77
2022-11-28T00:36:21.608Z,9.33
2022-11-28T00:38:50.203Z,9.13
2022-11-28T00:41:21.507Z,10.20
2022-11-28T00:43:50.593Z,9.00
2022-11-28T00:46:20.157Z,9.03
2022-11-28T00:48:48.733Z,9.43
2022-11-28T00:51:19.440Z,9.40
2022-11-28T00:53:49.521Z,9.50
2022-11-28T00:56:21.446Z,9.53
2022-11-28T00:58:49.981Z,9.10
2022-11-28T01:01:19.486Z,9.40
2022-11-28T01:03:48.218Z,8.60
2022-11-28T01:06:22.621Z,9.17
2022-11-28T01:08:50.463Z,9.17
2022-11-28T01:11:20.473Z,9.17
2022-11-28T01:13:48.634Z,8.70
2022-11-28T01:16:16.850Z,8.97
2022-11-28T01:18:44.802Z,9.47
2022-11-28T01:21:12.948Z,8.93
2022-11-28T01:23:40.857Z,9.03
2022-11-28T01:26:10.611Z,9.03
2022-11-28T01:28:40.116Z,8.77
2022-11-28T01:31:10.041Z,9.50
2022-11-28T01:33:38.317Z,9.23
2022-11-28T01:36:07.337Z,8.70
2022-11-28T01:38:35.680Z,8.63
2022-11-28T01:41:07.108Z,9.27
2022-11-28T01:43:35.675Z,8.83
2022-11-28T01:46:06.564Z,8.23
2022-11-28T01:48:41.543Z,8.43
2022-11-28T01:51:11.091Z,8.87
2022-11-28T01:53:43.500Z,8.50
2022-11-28T01:56:16.847Z,8.63
2022-11-28T01:58:50.350Z,8.50
2022-11-28T02:01:20.757Z,8.63
2022-11-28T02:03:51.005Z,8.00
2022-11-28T02:06:21.540Z,8.60
2022-11-28T02:08:52.501Z,8.93
2022-11-28T02:11:58.316Z,8.80
2022-11-28T02:14:44.785Z,8.80
2022-11-28T02:17:25.360Z,8.60
2022-11-28T02:20:24.395Z,8.40
2022-11-28T02:23:01.077Z,7.80
2022-11-28T02:25:54.589Z,9.03
2022-11-28T02:28:45.904Z,8.50
2022-11-28T02:31:33.617Z,9.00
2022-11-28T02:34:08.405Z,8.53
2022-11-28T02:36:42.037Z,8.20
2022-11-28T02:39:15.661Z,8.17
2022-11-28T02:41:48.594Z,7.97
2022-11-28T02:44:19.081Z,8.00
2022-11-28T02:46:54.033Z,7.87
2022-11-28T02:49:29.599Z,7.87
2022-11-28T02:52:01.738Z,8.60
2022-11-28T02:54:31.744Z,7.67
2022-11-28T02:56:59.626Z,8.17
2022-11-28T02:59:34.398Z,8.13
2022-11-28T03:02:03.204Z,7.83
2022-11-28T03:04:45.851Z,8.33
2022-11-28T03:07:25.420Z,7.77
2022-11-28T03:10:04.686Z,7.60
2022-11-28T03:12:42.876Z,8.80
2022-11-28T03:15:13.536Z,7.80
2022-11-28T03:17:49.795Z,7.27
2022-11-28T03:20:24.673Z,7.47
2022-11-28T03:23:03.028Z,7.87
2022-11-28T03:25:37.024Z,7.97
2022-11-28T03:28:10.042Z,7.67
2022-11-28T03:30:43.982Z,7.63
2022-11-28T03:33:13.963Z,7.77
2022-11-28T03:35:50.340Z,8.00
2022-11-28T03:38:22.797Z,7.53
2022-11-28T03:40:55.455Z,7.87
2022-11-28T03:43:29.066Z,8.60
2022-11-28T03:46:00.514Z,8.00
2022-11-28T03:48:32.298Z,7.90
2022-11-28T03:51:07.533Z,7.90
2022-11-28T03:53:43.633Z,7.90
2022-11-28T03:56:16.975Z,8.00
2022-11-28T03:58:50.817Z,8.10
2022-11-28T04:01:29.495Z,8.60
2022-11-28T04:04:15.765Z,8.33
2022-11-28T04:06:55.549Z,7.97
2022-11-28T04:09:36.772Z,8.03
2022-11-28T04:12:11.159Z,8.50
2022-11-28T04:14:43.058Z,7.50
2022-11-28T04:17:17.283Z,8.73
2022-11-28T04:19:50.812Z,7.80
2022-11-28T04:22:25.533Z,8.10
2022-11-28T04:24:57.085Z,8.40
2022-11-28T04:27:30.076Z,9.17
2022-11-28T04:30:02.106Z,8.37
2022-11-28T04:32:32.911Z,8.07
2022-11-28T04:35:06.269Z,8.27
2022-11-28T04:37:51.509Z,8.50
2022-11-28T04:40:21.555Z,8.30
2022-11-28T04:42:53.658Z,8.70
2022-11-28T04:45:27.880Z,8.40
2022-11-28T04:47:56.237Z,8.47
2022-11-28T04:50:26.686Z,8.43
2022-11-28T04:53:00.656Z,8.53
2022-11-28T04:55:35.965Z,9.00
2022-11-28T04:58:11.908Z,8.93
2022-11-28T05:00:41.606Z,8.53
2022-11-28T05:03:11.066Z,8.87
2022-11-28T05:05:47.962Z,8.23
2022-11-28T05:08:18.508Z,8.30
2022-11-28T05:10:46.388Z,8.83
2022-11-28T05:13:14.261Z,8.80
2022-11-28T05:15:42.092Z,10.00
2022-11-28T05:18:10.382Z,9.40
2022-11-28T05:20:39.781Z,8.93
2022-11-28T05:23:08.090Z,8.00
2022-11-28T05:25:38.800Z,8.87
2022-11-28T05:28:06.712Z,8.93
2022-11-28T05:30:34.580Z,9.03
2022-11-28T05:33:02.816Z,8.83
2022-11-28T05:35:30.800Z,9.03
2022-11-28T05:37:58.712Z,8.57
2022-11-28T05:40:26.539Z,9.50
2022-11-28T05:42:55.790Z,9.13
2022-11-28T05:45:23.657Z,9.13
2022-11-28T05:47:51.543Z,9.47
2022-11-28T05:50:19.383Z,8.80
2022-11-28T05:52:47.299Z,9.67
2022-11-28T05:55:15.340Z,9.57
2022-11-28T05:57:43.266Z,9.63
2022-11-28T06:00:14.443Z,10.23
2022-11-28T06:02:42.323Z,9.50
2022-11-28T06:05:34.695Z,8.70
2022-11-28T06:07:58.397Z,9.20
2022-11-28T06:10:26.416Z,9.10
2022-11-28T06:12:54.365Z,8.97
2022-11-28T06:15:23.677Z,9.23
2022-11-28T06:17:51.637Z,9.13
2022-11-28T06:20:19.672Z,9.93
2022-11-28T06:22:47.748Z,9.33
2022-11-28T06:25:15.679Z,9.40
2022-11-28T06:27:43.499Z,8.87
2022-11-28T06:30:11.707Z,9.10
2022-11-28T06:32:40.981Z,9.07
2022-11-28T06:35:09.404Z,9.10
2022-11-28T06:37:37.429Z,9.93
2022-11-28T06:40:06.488Z,8.90
2022-11-28T06:42:36.101Z,9.30
2022-11-28T06:45:04.521Z,9.50
2022-11-28T06:47:32.404Z,9.47
2022-11-28T06:50:01.561Z,9.77
2022-11-28T06:52:30.171Z,9.47
2022-11-28T06:54:58.093Z,9.47
2022-11-28T06:57:25.904Z,9.43
2022-11-28T06:59:53.785Z,9.67
2022-11-28T07:02:22.943Z,9.83
2022-11-28T07:04:50.800Z,10.00
2022-11-28T07:07:20.084Z,9.13
2022-11-28T07:09:48.060Z,10.17
2022-11-28T07:12:15.948Z,10.23
2022-11-28T07:14:43.925Z,10.57
2022-11-28T07:17:11.783Z,12.87
2022-11-28T07:19:39.855Z,11.43
2022-11-28T07:22:07.784Z,10.73
2022-11-28T07:24:37.055Z,11.10
2022-11-28T07:27:05.055Z,11.30
2022-11-28T07:29:36.471Z,9.83
2022-11-28T07:32:05.960Z,10.77
2022-11-28T07:34:34.000Z,17.90
2022-11-28T07:37:01.871Z,18.83
2022-11-28T07:39:29.946Z,13.23
2022-11-28T07:41:59.856Z,22.50
2022-11-28T07:44:27.804Z,21.73
2022-11-28T07:46:55.886Z,13.53
2022-11-28T07:49:23.731Z,12.77
2022-11-28T07:51:51.583Z,17.03
2022-11-28T07:54:19.502Z,12.40
2022-11-28T07:59:36.736Z,15.97
2022-11-28T08:02:04.769Z,12.47
2022-11-28T08:04:32.696Z,14.10
2022-11-28T08:07:01.204Z,12.87
2022-11-28T08:09:29.626Z,12.23
2022-11-28T08:11:57.779Z,11.87
2022-11-28T08:14:27.071Z,10.93
2022-11-28T08:16:56.329Z,11.30
2022-11-28T08:19:24.700Z,11.50
2022-11-28T08:22:07.668Z,11.37
2022-11-28T08:24:35.554Z,11.17
2022-11-28T08:27:06.392Z,11.70
2022-11-28T08:29:34.231Z,11.27
2022-11-28T08:32:03.455Z,12.63
2022-11-28T08:34:31.280Z,11.63
2022-11-28T08:36:59.218Z,12.13
2022-11-28T08:39:27.259Z,12.50
2022-11-28T08:41:57.210Z,14.23
2022-11-28T08:44:25.722Z,12.13
2022-11-28T08:46:53.898Z,11.57
2022-11-28T08:49:23.098Z,12.90
2022-11-28T08:51:51.127Z,11.87
2022-11-28T08:54:19.130Z,13.97
2022-11-28T08:56:48.385Z,12.23
2022-11-28T08:59:16.531Z,12.10
2022-11-28T09:01:44.454Z,12.40
2022-11-28T09:04:12.378Z,12.67
2022-11-28T09:06:42.099Z,12.37
2022-11-28T09:09:10.327Z,12.70
2022-11-28T09:11:38.850Z,12.43
2022-11-28T09:14:07.098Z,12.00
2022-11-28T09:16:35.016Z,12.80
2022-11-28T09:19:02.951Z,11.33
2022-11-28T09:21:30.911Z,12.40
2022-11-28T09:24:00.188Z,12.83
2022-11-28T09:26:29.913Z,12.00
2022-11-28T09:28:57.966Z,12.63
2022-11-28T09:31:26.836Z,13.30
2022-11-28T09:33:55.112Z,12.43
2022-11-28T09:36:25.017Z,11.97
2022-11-28T09:38:52.846Z,10.93
2022-11-28T09:41:54.692Z,12.43
2022-11-28T09:44:25.292Z,12.70
2022-11-28T09:46:56.639Z,12.57
2022-11-28T09:49:39.828Z,12.43
2022-11-28T09:52:22.552Z,12.10
2022-11-28T09:54:53.848Z,12.53
2022-11-28T09:57:33.136Z,11.80
2022-11-28T10:00:01.763Z,12.40
2022-11-28T10:02:36.343Z,11.47
2022-11-28T10:05:16.291Z,11.90
2022-11-28T10:07:57.815Z,11.40
2022-11-28T10:10:39.854Z,11.10
2022-11-28T10:13:15.745Z,12.00
2022-11-28T10:15:51.791Z,10.83
2022-11-28T10:18:34.651Z,11.77
2022-11-28T10:21:06.439Z,11.73
2022-11-28T10:23:41.278Z,12.10
2022-11-28T10:26:14.457Z,11.80
2022-11-28T10:28:49.142Z,11.20
2022-11-28T10:31:32.201Z,12.97
2022-11-28T10:34:06.809Z,12.73
2022-11-28T10:36:48.342Z,12.33
2022-11-28T10:39:16.323Z,11.40
2022-11-28T10:42:11.580Z,12.37
2022-11-28T10:44:52.570Z,13.43
2022-11-28T10:47:31.029Z,11.80
2022-11-28T10:50:04.570Z,12.17
2022-11-28T10:52:44.233Z,19.30
2022-11-28T10:55:28.014Z,20.00
2022-11-28T10:58:08.263Z,15.77
2022-11-28T11:00:39.424Z,14.07
2022-11-28T11:03:12.931Z,18.00
2022-11-28T11:05:42.597Z,21.80
2022-11-28T11:08:19.072Z,12.37
2022-11-28T11:10:50.611Z,14.97
2022-11-28T11:13:20.449Z,12.93
2022-11-28T11:15:52.955Z,12.03
2022-11-28T11:18:27.354Z,14.03
2022-11-28T11:21:09.660Z,10.90
2022-11-28T11:23:38.614Z,13.00
2022-11-28T11:26:10.254Z,12.27
2022-11-28T11:28:45.030Z,12.00
2022-11-28T11:31:24.516Z,13.70
2022-11-28T11:33:54.387Z,11.97
2022-11-28T11:36:27.089Z,12.13
2022-11-28T11:39:07.842Z,12.70
2022-11-28T11:41:35.781Z,12.43
2022-11-28T11:44:29.734Z,11.57
2022-11-28T11:47:03.639Z,11.83
2022-11-28T11:49:34.046Z,11.87
2022-11-28T11:52:04.628Z,11.40
2022-11-28T11:54:32.567Z,12.13
2022-11-28T11:57:30.592Z,11.37
2022-11-28T11:59:54.514Z,11.50
2022-11-28T12:02:29.066Z,13.17
2022-11-28T12:05:03.487Z,12.10
2022-11-28T12:07:38.114Z,11.90
2022-11-28T12:10:12.525Z,12.37
2022-11-28T12:12:42.022Z,11.53
2022-11-28T12:15:18.950Z,11.80
2022-11-28T12:17:59.329Z,11.07
2022-11-28T12:20:49.540Z,11.30
2022-11-28T12:23:33.094Z,11.27
2022-11-28T12:26:07.792Z,11.23
2022-11-28T12:28:50.525Z,12.20
2022-11-28T12:31:29.635Z,12.03
2022-11-28T12:34:06.768Z,10.93
2022-11-28T12:36:40.663Z,11.67
2022-11-28T12:39:19.415Z,11.23
2022-11-28T12:42:13.911Z,13.23
2022-11-28T12:44:55.008Z,12.97
2022-11-28T12:47:35.077Z,11.70
2022-11-28T12:50:19.703Z,11.63
2022-11-28T12:52:54.285Z,11.47
2022-11-28T12:55:29.823Z,12.10
2022-11-28T12:58:06.838Z,12.03
2022-11-28T13:00:39.793Z,12.20
2022-11-28T13:03:20.213Z,12.30
2022-11-28T13:06:03.557Z,12.53
2022-11-28T13:08:48.170Z,12.00
2022-11-28T13:11:33.717Z,12.07
2022-11-28T13:14:09.772Z,11.03
2022-11-28T13:16:46.938Z,12.03
2022-11-28T13:19:29.873Z,12.30
2022-11-28T13:22:08.817Z,11.90
2022-11-28T13:24:43.626Z,11.77
2022-11-28T13:27:22.070Z,11.43
2022-11-28T13:29:59.990Z,11.43
2022-11-28T13:32:37.181Z,11.20
2022-11-28T13:35:06.509Z,12.63
2022-11-28T13:40:41.269Z,11.70
2022-11-28T13:43:19.258Z,11.93
2022-11-28T13:45:48.510Z,11.60
2022-11-28T13:49:14.220Z,11.43
2022-11-28T13:51:43.120Z,12.13
2022-11-28T13:54:46.518Z,12.07
2022-11-28T13:57:31.639Z,11.13
2022-11-28T14:00:27.885Z,11.83
2022-11-28T14:03:00.112Z,11.73
2022-11-28T14:05:34.873Z,12.57
2022-11-28T14:08:04.839Z,12.30
2022-11-28T14:10:49.057Z,12.60
2022-11-28T14:13:47.963Z,12.90
2022-11-28T14:16:28.881Z,12.03
2022-11-28T14:19:06.890Z,12.97
2022-11-28T14:21:50.242Z,12.73
2022-11-28T14:24:29.365Z,12.03
2022-11-28T14:27:02.008Z,12.90
2022-11-28T14:29:35.419Z,13.00
2022-11-28T14:34:52.226Z,13.10
2022-11-28T14:37:53.170Z,13.13
2022-11-28T14:41:07.098Z,12.80
2022-11-28T14:43:41.320Z,12.77
2022-11-28T14:46:26.041Z,13.17
2022-11-28T14:49:22.397Z,13.30
2022-11-28T14:52:37.646Z,13.57
2022-11-28T14:55:16.422Z,13.13
2022-11-28T14:57:57.899Z,13.00
2022-11-28T15:00:29.831Z,13.87
2022-11-28T15:03:28.412Z,13.30
2022-11-28T15:06:00.927Z,13.37
2022-11-28T15:08:42.035Z,13.40
2022-11-28T15:11:21.399Z,14.70
2022-11-28T15:14:06.472Z,13.37
2022-11-28T15:16:40.047Z,14.10
2022-11-28T15:19:17.272Z,14.00
2022-11-28T15:21:47.177Z,13.90
2022-11-28T15:24:29.947Z,14.63
2022-11-28T15:26:59.671Z,14.43
2022-11-28T15:29:29.588Z,14.03
2022-11-28T15:32:00.112Z,13.83
2022-11-28T15:34:30.760Z,14.03
2022-11-28T15:37:00.822Z,15.53
2022-11-28T15:39:34.988Z,13.83
2022-11-28T15:42:05.869Z,16.13
2022-11-28T15:44:34.211Z,15.83
2022-11-28T15:47:03.681Z,14.50
2022-11-28T15:49:33.476Z,15.70
2022-11-28T15:52:03.810Z,15.53
2022-11-28T15:54:39.365Z,15.93
2022-11-28T15:57:07.417Z,14.27
2022-11-28T15:59:36.378Z,14.97
2022-11-28T16:02:16.569Z,16.27
2022-11-28T16:04:46.072Z,15.00
2022-11-28T16:07:16.165Z,15.80
2022-11-28T16:09:55.136Z,15.67
2022-11-28T16:12:23.554Z,16.07
2022-11-28T16:14:53.409Z,15.67
2022-11-28T16:17:27.190Z,16.30
2022-11-28T16:19:56.636Z,16.83
2022-11-28T16:22:30.484Z,20.27
2022-11-28T16:25:00.163Z,16.33
2022-11-28T16:27:34.349Z,15.73
2022-11-28T16:30:03.190Z,16.20
2022-11-28T16:32:39.399Z,16.57
2022-11-28T16:35:12.576Z,15.50
2022-11-28T16:37:41.003Z,15.63
2022-11-28T16:40:17.093Z,16.70
2022-11-28T16:42:53.877Z,16.07
2022-11-28T16:45:25.531Z,16.97
2022-11-28T16:48:02.191Z,15.57
2022-11-28T16:50:30.329Z,18.13
2022-11-28T16:52:59.002Z,16.60
2022-11-28T16:55:44.390Z,16.27
2022-11-28T16:58:21.612Z,15.10
2022-11-28T17:01:01.900Z,16.73
2022-11-28T17:03:51.368Z,16.53
2022-11-28T17:06:28.886Z,17.37
2022-11-28T17:08:58.550Z,17.20
2022-11-28T17:11:32.246Z,16.67
2022-11-28T17:14:02.702Z,17.17
2022-11-28T17:16:33.587Z,16.20
2022-11-28T17:19:03.015Z,16.93
2022-11-28T17:21:35.446Z,17.30
2022-11-28T17:24:03.472Z,16.70
2022-11-28T17:26:33.124Z,17.33
2022-11-28T17:29:01.456Z,16.67
2022-11-28T17:31:29.367Z,16.87
2022-11-28T17:33:57.420Z,16.33
2022-11-28T17:36:26.695Z,16.50
2022-11-28T17:38:54.599Z,19.33
2022-11-28T17:41:23.295Z,17.33
2022-11-28T17:43:51.174Z,16.43
2022-11-28T17:46:21.488Z,16.90
2022-11-28T17:48:49.497Z,16.37
2022-11-28T17:51:17.585Z,18.20
2022-11-28T17:53:49.010Z,17.93
2022-11-28T17:56:17.028Z,17.03
2022-11-28T17:58:45.031Z,15.77
2022-11-28T18:01:13.955Z,17.37
2022-11-28T18:03:42.085Z,17.70
2022-11-28T18:06:16.474Z,16.90
2022-11-28T18:08:44.546Z,17.43
2022-11-28T18:11:15.148Z,16.77
2022-11-28T18:13:44.756Z,17.53
2022-11-28T18:16:14.016Z,16.80
2022-11-28T18:18:42.079Z,17.87
2022-11-28T18:21:11.150Z,17.30
2022-11-28T18:23:40.079Z,17.20
2022-11-28T18:26:09.676Z,18.37
2022-11-28T18:28:39.458Z,18.13
2022-11-28T18:31:11.903Z,17.20
2022-11-28T18:33:40.358Z,17.57
2022-11-28T18:36:12.502Z,17.67
2022-11-28T18:38:40.561Z,17.13
2022-11-28T18:41:10.425Z,17.80
2022-11-28T18:43:39.876Z,17.97
2022-11-28T18:46:09.293Z,18.20
2022-11-28T18:48:38.433Z,17.33
2022-11-28T18:51:12.688Z,17.07
2022-11-28T18:53:40.722Z,17.63
2022-11-28T18:56:09.682Z,17.33
2022-11-28T18:58:40.972Z,17.37
2022-11-28T19:01:13.157Z,18.50
2022-11-28T19:03:42.562Z,17.73
2022-11-28T19:06:12.935Z,17.50
2022-11-28T19:08:41.387Z,17.07
2022-11-28T19:11:11.304Z,17.57
2022-11-28T19:13:41.241Z,17.07
2022-11-28T19:16:10.916Z,18.07
2022-11-28T19:18:39.802Z,17.93
2022-11-28T19:21:08.867Z,18.27
2022-11-28T19:23:37.249Z,18.13
2022-11-28T19:26:06.192Z,17.47
2022-11-28T19:28:35.514Z,17.40
2022-11-28T19:31:08.047Z,17.07
2022-11-28T19:33:35.987Z,16.43
2022-11-28T19:36:04.235Z,16.73
2022-11-28T19:38:32.319Z,16.33
2022-11-28T19:41:00.250Z,18.00
2022-11-28T19:43:28.110Z,17.80
2022-11-28T19:45:56.735Z,17.00
2022-11-28T19:48:26.070Z,16.67
2022-11-28T19:50:54.479Z,16.53
2022-11-28T19:53:23.022Z,17.47
2022-11-28T19:55:50.849Z,17.00
2022-11-28T19:58:19.573Z,17.10
2022-11-28T20:00:47.606Z,17.90
2022-11-28T20:03:18.174Z,17.73
2022-11-28T20:05:47.502Z,18.07
2022-11-28T20:08:15.445Z,17.30
2022-11-28T20:10:43.543Z,18.03
2022-11-28T20:13:11.613Z,17.13
2022-11-28T20:15:39.540Z,18.53
2022-11-28T20:18:07.447Z,17.10
2022-11-28T20:20:35.957Z,17.60
2022-11-28T20:23:05.735Z,17.13
2022-11-28T20:25:34.074Z,15.77
2022-11-28T20:28:02.159Z,17.40
2022-11-28T20:30:32.963Z,17.57
2022-11-28T20:33:00.805Z,16.97
2022-11-28T20:35:29.088Z,16.97
2022-11-28T20:37:57.095Z,18.47
2022-11-28T20:40:26.408Z,16.97
2022-11-28T20:42:54.489Z,16.90
2022-11-28T20:45:22.279Z,17.83
2022-11-28T20:47:50.247Z,17.40
2022-11-28T20:50:18.347Z,17.07
2022-11-28T20:52:46.324Z,16.80
2022-11-28T20:55:14.144Z,17.37
2022-11-28T20:57:43.344Z,17.63
2022-11-28T21:00:12.395Z,17.77
2022-11-28T21:02:40.525Z,17.73
2022-11-28T21:05:09.068Z,17.77
2022-11-28T21:07:37.003Z,18.00
2022-11-28T21:10:05.394Z,18.37
2022-11-28T21:12:34.010Z,18.23
2022-11-28T21:15:03.383Z,17.27
2022-11-28T21:17:31.234Z,17.63
2022-11-28T21:19:59.065Z,16.90
2022-11-28T21:22:27.191Z,19.60
2022-11-28T21:24:54.970Z,18.23
2022-11-28T21:27:23.001Z,18.47
2022-11-28T21:29:52.056Z,18.90
2022-11-28T21:32:21.320Z,17.10
2022-11-28T21:34:49.187Z,18.00
2022-11-28T21:37:16.958Z,18.93
2022-11-28T21:39:44.925Z,18.27
2022-11-28T21:42:17.455Z,18.47
2022-11-28T21:44:48.146Z,18.27
2022-11-28T21:47:16.084Z,18.30
2022-11-28T21:49:45.426Z,18.73
2022-11-28T21:52:13.562Z,18.90
2022-11-28T21:54:41.512Z,18.57
2022-11-28T21:57:09.292Z,18.77
2022-11-28T21:59:37.113Z,18.90
2022-11-28T22:02:11.288Z,17.93
2022-11-28T22:04:39.757Z,18.07
2022-11-28T22:07:09.547Z,17.73
2022-11-28T22:09:37.452Z,18.67
2022-11-28T22:12:05.827Z,17.90
2022-11-28T22:14:36.813Z,17.00
2022-11-28T22:17:04.997Z,18.43
2022-11-28T22:19:32.932Z,18.80
2022-11-28T22:22:00.955Z,18.43
2022-11-28T22:24:30.354Z,18.40
2022-11-28T22:26:58.503Z,18.80
2022-11-28T22:29:26.764Z,17.40
2022-11-28T22:31:54.732Z,18.43
2022-11-28T22:34:23.087Z,18.17
2022-11-28T22:36:51.229Z,18.67
2022-11-28T22:39:19.065Z,19.00
2022-11-28T22:41:48.394Z,18.80
2022-11-28T22:44:16.349Z,19.33
2022-11-28T22:46:44.222Z,19.10
2022-11-28T22:49:12.166Z,19.30
2022-11-28T22:51:41.329Z,18.40
2022-11-28T22:54:12.574Z,19.50
2022-11-28T22:56:41.112Z,18.37
2022-11-28T22:59:14.466Z,19.40
2022-11-28T23:01:43.664Z,19.20
2022-11-28T23:04:11.747Z,19.63
2022-11-28T23:06:39.861Z,20.87
2022-11-28T23:09:09.407Z,19.67
2022-11-28T23:11:40.242Z,19.20
2022-11-28T23:14:08.180Z,19.23
2022-11-28T23:16:39.192Z,18.70
2022-11-28T23:19:09.134Z,21.50
2022-11-28T23:21:39.057Z,20.27
2022-11-28T23:24:08.153Z,20.13
2022-11-28T23:26:38.175Z,20.40
2022-11-28T23:29:06.920Z,20.97
2022-11-28T23:31:39.021Z,21.07
2022-11-28T23:34:08.077Z,21.37
2022-11-28T23:36:42.451Z,21.00
2022-11-28T23:39:13.835Z,20.70
2022-11-28T23:41:42.623Z,22.10
2022-11-28T23:44:11.664Z,21.00
2022-11-28T23:46:41.860Z,21.03
2022-11-28T23:49:10.526Z,22.83
2022-11-28T23:51:38.653Z,20.93
2022-11-28T23:54:07.315Z,22.40
2022-11-28T23:56:36.978Z,22.40
2022-11-28T23:59:06.869Z,22.63
